createdAt,value
2022-11-04T00:00:42.495Z,8.32
2022-11-04T00:03:27.918Z,8.93
2022-11-04T00:06:13.566Z,9.00
2022-11-04T00:08:59.476Z,9.27
2022-11-04T00:12:03.822Z,8.25
2022-11-04T00:14:48.900Z,9.52
2022-11-04T00:17:34.198Z,8.80
2022-11-04T00:20:38.016Z,9.30
2022-11-04T00:23:41.795Z,9.45
2022-11-04T00:26:45.618Z,9.43
2022-11-04T00:29:31.270Z,8.85
2022-11-04T00:32:35.165Z,9.30
2022-11-04T00:35:21.441Z,9.23
2022-11-04T00:38:06.807Z,9.20
2022-11-04T00:40:52.870Z,9.77
2022-11-04T00:43:37.877Z,8.90
2022-11-04T00:46:23.600Z,9.82
2022-11-04T00:49:08.838Z,9.75
2022-11-04T00:51:54.258Z,9.00
2022-11-04T00:54:39.824Z,10.10
2022-11-04T00:57:25.049Z,9.18
2022-11-04T01:00:11.264Z,10.13
2022-11-04T01:02:56.723Z,10.38
2022-11-04T01:05:41.923Z,9.77
2022-11-04T01:08:27.293Z,9.40
2022-11-04T01:11:13.477Z,10.02
2022-11-04T01:13:58.638Z,9.50
2022-11-04T01:16:44.929Z,10.13
2022-11-04T01:19:30.393Z,9.88
2022-11-04T01:22:15.693Z,9.38
2022-11-04T01:25:00.956Z,9.52
2022-11-04T01:27:46.078Z,9.63
2022-11-04T01:30:31.220Z,10.57
2022-11-04T01:33:16.632Z,9.70
2022-11-04T01:36:03.115Z,9.77
2022-11-04T01:38:49.202Z,10.75
2022-11-04T01:41:34.591Z,9.35
2022-11-04T01:44:41.166Z,9.45
2022-11-04T01:47:36.703Z,10.00
2022-11-04T01:50:28.932Z,9.27
2022-11-04T01:53:19.627Z,8.80
2022-11-04T01:56:12.130Z,9.70
2022-11-04T01:59:05.043Z,9.73
2022-11-04T02:01:50.254Z,10.43
2022-11-04T02:04:37.040Z,9.27
2022-11-04T02:07:23.527Z,10.95
2022-11-04T02:10:09.803Z,9.73
2022-11-04T02:12:56.852Z,9.18
2022-11-04T02:15:55.138Z,9.73
2022-11-04T02:18:58.528Z,10.45
2022-11-04T02:21:43.946Z,9.60
2022-11-04T02:25:03.626Z,10.13
2022-11-04T02:28:25.857Z,10.30
2022-11-04T02:31:23.489Z,10.10
2022-11-04T02:34:11.886Z,10.45
2022-11-04T02:37:02.538Z,10.35
2022-11-04T02:40:09.756Z,9.30
2022-11-04T02:43:02.886Z,9.80
2022-11-04T02:45:51.084Z,9.30
2022-11-04T02:48:43.204Z,9.90
2022-11-04T02:51:35.530Z,10.40
2022-11-04T02:54:37.113Z,9.63
2022-11-04T02:57:28.569Z,9.65
2022-11-04T03:00:14.681Z,9.70
2022-11-04T03:03:05.720Z,10.90
2022-11-04T03:05:54.903Z,10.07
2022-11-04T03:08:45.948Z,9.45
2022-11-04T03:11:32.645Z,10.30
2022-11-04T03:14:27.297Z,9.50
2022-11-04T03:17:23.776Z,9.75
2022-11-04T03:20:20.654Z,11.27
2022-11-04T03:23:06.813Z,10.18
2022-11-04T03:25:58.451Z,10.25
2022-11-04T03:28:50.996Z,9.77
2022-11-04T03:31:54.286Z,9.43
2022-11-04T03:34:39.676Z,10.60
2022-11-04T03:37:24.767Z,9.80
2022-11-04T03:40:10.889Z,10.40
2022-11-04T03:43:01.073Z,10.73
2022-11-04T03:45:46.636Z,10.27
2022-11-04T03:48:32.018Z,9.75
2022-11-04T03:51:16.893Z,10.52
2022-11-04T03:54:02.238Z,10.32
2022-11-04T03:57:06.429Z,10.90
2022-11-04T04:00:16.601Z,9.85
2022-11-04T04:03:15.943Z,10.20
2022-11-04T04:06:14.169Z,11.13
2022-11-04T04:09:08.508Z,9.68
2022-11-04T04:12:02.006Z,11.85
2022-11-04T04:14:52.625Z,10.40
2022-11-04T04:17:43.087Z,10.60
2022-11-04T04:20:31.604Z,10.48
2022-11-04T04:23:41.760Z,10.63
2022-11-04T04:26:47.424Z,11.13
2022-11-04T04:29:33.158Z,10.23
2022-11-04T04:32:22.361Z,10.50
2022-11-04T04:35:27.594Z,9.57
2022-11-04T04:38:34.289Z,9.57
2022-11-04T04:41:50.316Z,9.85
2022-11-04T04:44:54.225Z,9.77
2022-11-04T04:47:42.974Z,10.45
2022-11-04T04:50:37.166Z,10.43
2022-11-04T04:53:23.155Z,10.13
2022-11-04T04:56:08.368Z,10.38
2022-11-04T04:58:53.622Z,9.85
2022-11-04T05:01:39.107Z,10.63
2022-11-04T05:04:24.303Z,10.43
2022-11-04T05:07:10.064Z,10.20
2022-11-04T05:09:55.265Z,11.38
2022-11-04T05:12:59.235Z,10.25
2022-11-04T05:15:44.773Z,9.98
2022-11-04T05:18:30.357Z,10.50
2022-11-04T05:21:16.238Z,9.65
2022-11-04T05:24:01.820Z,10.93
2022-11-04T05:26:46.844Z,10.00
2022-11-04T05:29:32.309Z,10.30
2022-11-04T05:32:17.309Z,10.23
2022-11-04T05:35:03.071Z,10.95
2022-11-04T05:37:48.545Z,10.77
2022-11-04T05:40:33.824Z,10.85
2022-11-04T05:43:18.877Z,10.25
2022-11-04T05:46:04.763Z,10.75
2022-11-04T05:48:50.300Z,10.95
2022-11-04T05:51:35.759Z,11.18
2022-11-04T05:54:21.232Z,10.48
2022-11-04T05:57:08.669Z,11.02
2022-11-04T05:59:53.934Z,11.20
2022-11-04T06:02:39.684Z,11.32
2022-11-04T06:05:25.512Z,11.10
2022-11-04T06:08:11.223Z,11.40
2022-11-04T06:10:56.875Z,11.73
2022-11-04T06:13:42.108Z,10.98
2022-11-04T06:16:27.744Z,11.45
2022-11-04T06:19:15.914Z,13.43
2022-11-04T06:22:01.557Z,11.48
2022-11-04T06:24:46.857Z,12.88
2022-11-04T06:27:32.168Z,23.38
2022-11-04T06:30:17.554Z,12.13
2022-11-04T06:33:02.909Z,13.13
2022-11-04T06:35:48.181Z,12.90
2022-11-04T06:38:36.667Z,13.10
2022-11-04T06:41:24.569Z,14.93
2022-11-04T06:44:09.690Z,14.00
2022-11-04T06:46:55.243Z,16.05
2022-11-04T06:49:40.847Z,15.50
2022-11-04T06:52:25.948Z,15.68
2022-11-04T06:55:11.502Z,15.30
2022-11-04T06:57:57.047Z,13.70
2022-11-04T07:00:42.853Z,13.88
2022-11-04T07:03:28.401Z,13.90
2022-11-04T07:06:13.789Z,13.32
2022-11-04T07:09:01.261Z,15.25
2022-11-04T07:11:46.417Z,14.52
2022-11-04T07:14:31.656Z,14.07
2022-11-04T07:17:16.990Z,16.42
2022-11-04T07:20:02.871Z,15.05
2022-11-04T07:22:48.303Z,14.73
2022-11-04T07:25:33.249Z,15.23
2022-11-04T07:28:18.438Z,14.77
2022-11-04T07:31:05.787Z,16.27
2022-11-04T07:33:51.515Z,15.07
2022-11-04T07:36:37.148Z,16.35
2022-11-04T07:39:22.259Z,14.13
2022-11-04T07:42:08.364Z,15.20
2022-11-04T07:44:53.867Z,16.15
2022-11-04T07:47:39.328Z,15.27
2022-11-04T07:50:24.636Z,15.35
2022-11-04T07:53:12.097Z,14.57
2022-11-04T07:55:58.721Z,15.77
2022-11-04T07:58:44.065Z,15.25
2022-11-04T08:01:29.226Z,14.13
2022-11-04T08:04:14.547Z,12.85
2022-11-04T08:06:59.937Z,13.45
2022-11-04T08:09:45.349Z,14.20
2022-11-04T08:12:32.233Z,14.80
2022-11-04T08:15:17.821Z,14.43
2022-11-04T08:18:03.301Z,14.63
2022-11-04T08:20:50.124Z,13.70
2022-11-04T08:23:36.174Z,13.15
2022-11-04T08:26:23.394Z,12.90
2022-11-04T08:29:09.333Z,13.18
2022-11-04T08:31:54.906Z,13.02
2022-11-04T08:34:40.703Z,13.55
2022-11-04T08:37:26.069Z,12.98
2022-11-04T08:40:11.542Z,12.77
2022-11-04T08:42:56.673Z,13.05
2022-11-04T08:45:43.977Z,12.65
2022-11-04T08:48:29.292Z,12.32
2022-11-04T08:51:25.903Z,12.63
2022-11-04T08:54:11.476Z,12.40
2022-11-04T08:56:56.623Z,10.90
2022-11-04T08:59:41.888Z,10.90
2022-11-04T09:02:27.121Z,10.63
2022-11-04T09:05:14.861Z,10.75
2022-11-04T09:08:04.650Z,10.43
2022-11-04T09:10:50.543Z,10.93
2022-11-04T09:13:39.584Z,9.70
2022-11-04T09:16:25.047Z,9.75
2022-11-04T09:19:10.471Z,10.20
2022-11-04T09:21:55.676Z,10.70
2022-11-04T09:24:40.878Z,9.30
2022-11-04T09:27:26.223Z,9.50
2022-11-04T09:30:12.086Z,8.80
2022-11-04T09:32:58.385Z,9.18
2022-11-04T09:35:43.617Z,9.82
2022-11-04T09:38:29.009Z,8.50
2022-11-04T09:41:34.701Z,9.27
2022-11-04T09:45:00.057Z,10.32
2022-11-04T09:47:49.445Z,9.40
2022-11-04T09:50:57.769Z,9.88
2022-11-04T09:53:49.253Z,9.45
2022-11-04T09:56:43.389Z,9.65
2022-11-04T09:59:37.626Z,10.63
2022-11-04T10:02:38.348Z,12.10
2022-11-04T10:05:41.911Z,9.63
2022-11-04T10:08:45.972Z,9.45
2022-11-04T10:11:45.504Z,10.27
2022-11-04T10:14:42.466Z,9.60
2022-11-04T10:17:47.563Z,9.65
2022-11-04T10:20:51.602Z,8.98
2022-11-04T10:24:15.623Z,9.23
2022-11-04T10:27:04.883Z,9.90
2022-11-04T10:29:57.218Z,9.00
2022-11-04T10:33:03.563Z,9.15
2022-11-04T10:35:59.594Z,9.32
2022-11-04T10:38:50.395Z,8.60
2022-11-04T10:41:39.268Z,9.23
2022-11-04T10:44:36.639Z,8.80
2022-11-04T10:47:42.459Z,9.57
2022-11-04T10:50:57.724Z,8.88
2022-11-04T10:53:43.245Z,9.13
2022-11-04T10:56:52.841Z,9.38
2022-11-04T10:59:51.514Z,9.07
2022-11-04T11:02:36.920Z,10.00
2022-11-04T11:05:24.555Z,8.90
2022-11-04T11:08:28.146Z,9.70
2022-11-04T11:11:16.011Z,9.65
2022-11-04T11:14:01.228Z,10.60
2022-11-04T11:16:48.073Z,9.95
2022-11-04T11:19:47.606Z,9.63
2022-11-04T11:22:41.205Z,10.32
2022-11-04T11:25:31.829Z,9.40
2022-11-04T11:28:26.068Z,9.70
2022-11-04T11:31:18.591Z,10.80
2022-11-04T11:34:07.464Z,10.27
2022-11-04T11:36:55.554Z,9.93
2022-11-04T11:39:43.941Z,9.98
2022-11-04T11:42:30.317Z,10.65
2022-11-04T11:45:16.890Z,9.30
2022-11-04T11:48:02.367Z,10.98
2022-11-04T11:50:58.609Z,9.55
2022-11-04T11:54:22.589Z,9.25
2022-11-04T11:57:37.130Z,9.73
2022-11-04T12:10:07.068Z,9.27
2022-11-04T12:13:14.557Z,9.43
2022-11-04T12:16:32.973Z,9.55
2022-11-04T12:19:54.169Z,9.55
2022-11-04T12:23:18.021Z,9.48
2022-11-04T12:26:33.609Z,10.98
2022-11-04T12:29:35.965Z,10.25
2022-11-04T12:32:39.637Z,9.23
2022-11-04T12:35:50.058Z,9.70
2022-11-04T12:39:12.435Z,9.57
2022-11-04T12:42:21.843Z,9.70
2022-11-04T12:45:26.838Z,9.07
2022-11-04T12:48:31.928Z,8.98
2022-11-04T12:51:29.066Z,8.63
2022-11-04T12:55:12.045Z,7.45
2022-11-04T12:58:20.692Z,8.43
2022-11-04T13:01:15.762Z,8.73
2022-11-04T13:04:14.319Z,8.38
2022-11-04T13:07:10.066Z,9.07
2022-11-04T13:10:05.105Z,9.00
2022-11-04T13:12:54.099Z,8.27
2022-11-04T13:15:54.432Z,9.03
2022-11-04T13:18:41.102Z,8.82
2022-11-04T13:21:34.465Z,9.38
2022-11-04T13:24:35.060Z,9.30
2022-11-04T13:27:33.158Z,10.07
2022-11-04T13:30:18.640Z,9.55
2022-11-04T13:33:43.777Z,9.57
2022-11-04T13:36:50.402Z,9.65
2022-11-04T13:39:48.786Z,10.43
2022-11-04T13:42:51.857Z,10.57
2022-11-04T13:45:47.533Z,9.85
2022-11-04T13:48:34.787Z,9.65
2022-11-04T13:51:20.485Z,10.43
2022-11-04T13:54:08.066Z,11.15
2022-11-04T13:57:06.993Z,10.82
2022-11-04T14:00:11.485Z,9.52
2022-11-04T14:03:17.168Z,10.32
2022-11-04T14:06:06.501Z,9.32
2022-11-04T14:09:31.989Z,9.48
2022-11-04T14:12:25.781Z,10.30
2022-11-04T14:15:15.751Z,8.93
2022-11-04T14:21:09.006Z,9.55
2022-11-04T14:24:02.034Z,9.32
2022-11-04T14:26:48.763Z,8.48
2022-11-04T14:29:34.633Z,10.00
2022-11-04T14:32:33.409Z,9.38
2022-11-04T14:35:19.411Z,9.15
2022-11-04T14:38:30.887Z,9.82
2022-11-04T14:41:28.815Z,9.27
2022-11-04T14:44:15.442Z,8.57
2022-11-04T14:47:20.256Z,10.02
2022-11-04T14:50:08.601Z,9.30
2022-11-04T14:53:00.768Z,8.57
2022-11-04T14:55:45.957Z,8.88
2022-11-04T14:58:31.591Z,9.05
2022-11-04T15:01:16.904Z,9.07
2022-11-04T15:04:14.463Z,9.20
2022-11-04T15:07:02.608Z,8.63
2022-11-04T15:09:50.664Z,8.38
2022-11-04T15:12:50.664Z,8.85
2022-11-04T15:15:41.522Z,9.70
2022-11-04T15:18:29.107Z,9.77
2022-11-04T15:21:15.708Z,9.38
2022-11-04T15:24:01.606Z,9.15
2022-11-04T15:26:54.981Z,9.93
2022-11-04T15:29:40.548Z,10.07
2022-11-04T15:32:26.814Z,9.40
2022-11-04T15:35:13.271Z,10.07
2022-11-04T15:38:01.194Z,9.93
2022-11-04T15:40:46.852Z,9.63
2022-11-04T15:43:32.904Z,8.73
2022-11-04T15:46:19.696Z,9.52
2022-11-04T15:49:07.437Z,9.38
2022-11-04T15:51:58.514Z,10.43
2022-11-04T15:54:48.400Z,10.35
2022-11-04T15:57:38.849Z,9.52
2022-11-04T16:00:25.871Z,9.40
2022-11-04T16:03:19.736Z,8.55
2022-11-04T16:06:09.734Z,10.00
2022-11-04T16:09:09.323Z,9.68
2022-11-04T16:12:17.275Z,9.00
2022-11-04T16:15:04.028Z,10.35
2022-11-04T16:17:49.460Z,9.65
2022-11-04T16:20:36.028Z,10.50
2022-11-04T16:23:24.776Z,9.77
2022-11-04T16:26:10.634Z,8.77
2022-11-04T16:28:59.088Z,10.05
2022-11-04T16:31:44.680Z,10.13
2022-11-04T16:34:33.403Z,9.68
2022-11-04T16:37:24.510Z,9.63
2022-11-04T16:40:39.312Z,10.10
2022-11-04T16:43:58.754Z,10.75
2022-11-04T16:50:35.746Z,10.40
2022-11-04T16:53:24.100Z,10.10
2022-11-04T16:56:10.139Z,10.63
2022-11-04T16:58:55.552Z,10.40
2022-11-04T17:01:40.918Z,10.30
2022-11-04T17:04:26.056Z,10.05
2022-11-04T17:07:11.336Z,10.65
2022-11-04T17:09:56.500Z,10.30
2022-11-04T17:12:41.784Z,10.32
2022-11-04T17:15:27.460Z,10.48
2022-11-04T17:18:16.820Z,10.73
2022-11-04T17:21:06.283Z,11.75
2022-11-04T17:23:52.801Z,10.93
2022-11-04T17:26:38.079Z,10.13
2022-11-04T17:29:23.149Z,12.10
2022-11-04T17:32:09.131Z,11.30
2022-11-04T17:34:54.308Z,10.35
2022-11-04T17:37:39.747Z,10.32
2022-11-04T17:40:25.139Z,10.55
2022-11-04T17:43:28.850Z,11.35
2022-11-04T17:46:33.223Z,9.85
2022-11-04T17:49:20.956Z,11.40
2022-11-04T17:52:06.616Z,10.85
2022-11-04T17:54:52.784Z,11.05
2022-11-04T17:57:38.350Z,11.20
2022-11-04T18:00:29.348Z,10.90
2022-11-04T18:03:14.807Z,10.98
2022-11-04T18:06:00.004Z,10.98
2022-11-04T18:08:45.455Z,10.68
2022-11-04T18:11:49.793Z,11.25
2022-11-04T18:14:34.948Z,11.27
2022-11-04T18:17:24.564Z,11.48
2022-11-04T18:20:14.560Z,11.50
2022-11-04T18:25:50.552Z,10.55
2022-11-04T18:28:40.065Z,11.27
2022-11-04T18:31:31.448Z,10.88
2022-11-04T18:34:19.302Z,11.40
2022-11-04T18:37:04.517Z,11.27
2022-11-04T18:39:50.184Z,10.00
2022-11-04T18:42:36.074Z,11.52
2022-11-04T18:45:21.652Z,11.48
2022-11-04T18:48:07.214Z,10.45
2022-11-04T18:50:52.899Z,10.48
2022-11-04T18:53:38.566Z,10.45
2022-11-04T18:56:23.979Z,10.25
2022-11-04T18:59:11.635Z,10.35
2022-11-04T19:01:57.359Z,9.80
2022-11-04T19:04:42.450Z,10.77
2022-11-04T19:07:27.871Z,10.57
2022-11-04T19:10:13.561Z,9.57
2022-11-04T19:13:17.855Z,10.52
2022-11-04T19:16:08.002Z,9.15
2022-11-04T19:18:54.857Z,10.18
2022-11-04T19:21:40.452Z,10.27
2022-11-04T19:24:25.712Z,9.27
2022-11-04T19:27:11.026Z,9.90
2022-11-04T19:29:56.457Z,10.70
2022-11-04T19:32:41.646Z,10.60
2022-11-04T19:35:27.177Z,10.27
2022-11-04T19:38:12.910Z,9.85
2022-11-04T19:41:06.571Z,10.68
2022-11-04T19:43:51.723Z,9.63
2022-11-04T19:46:37.722Z,9.60
2022-11-04T19:49:22.969Z,9.52
2022-11-04T19:52:08.860Z,9.00
2022-11-04T19:54:54.419Z,9.07
2022-11-04T19:57:39.690Z,8.80
2022-11-04T20:00:24.851Z,10.15
2022-11-04T20:03:10.337Z,9.27
2022-11-04T20:05:55.434Z,10.88
2022-11-04T20:08:42.957Z,9.75
2022-11-04T20:11:28.289Z,10.20
2022-11-04T20:14:13.543Z,10.30
2022-11-04T20:16:58.683Z,10.63
2022-11-04T20:19:43.739Z,9.65
2022-11-04T20:22:29.320Z,9.23
2022-11-04T20:25:14.704Z,9.43
2022-11-04T20:28:01.939Z,9.95
2022-11-04T20:30:47.406Z,9.45
2022-11-04T20:33:32.543Z,10.68
2022-11-04T20:36:21.204Z,9.60
2022-11-04T20:39:09.908Z,9.65
2022-11-04T20:41:55.421Z,9.47
2022-11-04T20:44:40.814Z,10.18
2022-11-04T20:47:26.061Z,9.32
2022-11-04T20:50:11.557Z,10.30
2022-11-04T20:52:56.931Z,10.30
2022-11-04T20:55:42.866Z,9.95
2022-11-04T20:58:30.374Z,9.93
2022-11-04T21:01:21.405Z,9.65
2022-11-04T21:04:18.800Z,10.75
2022-11-04T21:07:04.778Z,9.55
2022-11-04T21:09:51.199Z,10.30
2022-11-04T21:12:36.448Z,10.40
2022-11-04T21:15:40.297Z,8.77
2022-11-04T21:18:26.320Z,10.05
2022-11-04T21:21:14.733Z,9.95
2022-11-04T21:24:05.366Z,9.93
2022-11-04T21:26:50.788Z,9.18
2022-11-04T21:29:36.446Z,10.65
2022-11-04T21:32:21.973Z,10.45
2022-11-04T21:35:07.453Z,10.23
2022-11-04T21:37:52.995Z,12.00
2022-11-04T21:40:38.484Z,12.27
2022-11-04T21:43:24.175Z,11.65
2022-11-04T21:46:13.198Z,11.98
2022-11-04T21:48:59.184Z,11.63
2022-11-04T21:51:44.654Z,12.02
2022-11-04T21:54:30.137Z,11.93
2022-11-04T21:57:15.292Z,11.45
2022-11-04T22:00:00.652Z,11.23
2022-11-04T22:02:52.493Z,11.48
2022-11-04T22:05:37.602Z,11.98
2022-11-04T22:08:23.268Z,12.63
2022-11-04T22:11:11.704Z,13.05
2022-11-04T22:13:59.110Z,12.75
2022-11-04T22:16:44.629Z,13.68
2022-11-04T22:19:29.767Z,12.82
2022-11-04T22:22:15.302Z,12.57
2022-11-04T22:25:03.754Z,12.63
2022-11-04T22:27:49.127Z,12.27
2022-11-04T22:30:36.583Z,12.60
2022-11-04T22:33:23.500Z,12.68
2022-11-04T22:36:12.486Z,11.48
2022-11-04T22:38:58.630Z,12.45
2022-11-04T22:41:46.045Z,12.10
2022-11-04T22:44:31.390Z,12.35
2022-11-04T22:47:16.870Z,11.63
2022-11-04T22:50:02.300Z,12.43
2022-11-04T22:52:47.946Z,13.88
2022-11-04T22:55:35.611Z,13.02
2022-11-04T22:58:21.251Z,12.77
2022-11-04T23:01:12.403Z,13.77
2022-11-04T23:03:57.588Z,13.82
2022-11-04T23:06:42.964Z,13.73
2022-11-04T23:09:28.182Z,12.70
2022-11-04T23:12:32.194Z,12.80
2022-11-04T23:15:36.100Z,12.57
2022-11-04T23:18:39.823Z,13.70
2022-11-04T23:21:43.798Z,12.68
2022-11-04T23:24:48.043Z,11.20
2022-11-04T23:27:53.647Z,12.55
2022-11-04T23:30:45.706Z,11.93
2022-11-04T23:33:49.936Z,12.00
2022-11-04T23:36:53.776Z,12.20
2022-11-04T23:39:46.705Z,10.68
2022-11-04T23:42:32.040Z,10.30
2022-11-04T23:45:36.120Z,9.73
2022-11-04T23:48:40.015Z,9.95
2022-11-04T23:51:43.979Z,8.95
2022-11-04T23:54:47.872Z,9.98
2022-11-04T23:57:51.586Z,9.50
